Time;durP1;ratioP1;P1;durP2;ratioP2;P2;SDS_P1;SDS_P2;PMS_P1;PMS_P2;Temp;Humidity;BMP_temperature;BMP_pressure;BME280_temperature;BME280_humidity;BME280_pressure;Samples;Min_cycle;Max_cycle;Signal;HPM_P1;HPM_P2
2022/08/11 00:01:30;;;;;;;20.40;10.40;;;23.80;99.90;;;;;;5062700;28;20266;-76
2022/08/11 00:04:03;;;;;;;16.50;9.80;;;23.80;99.90;;;;;;5054461;28;20667;-76
2022/08/11 00:06:38;;;;;;;17.67;10.38;;;23.80;99.90;;;;;;5062649;28;20252;-76
2022/08/11 00:09:10;;;;;;;15.00;10.60;;;23.80;99.90;;;;;;5064302;28;20915;-77
2022/08/11 00:11:43;;;;;;;17.33;10.73;;;23.80;99.90;;;;;;5065993;28;20924;-76
2022/08/11 00:14:27;;;;;;;22.13;11.57;;;23.80;99.90;;;;;;5044477;28;20215;-76
2022/08/11 00:17:07;;;;;;;15.82;11.25;;;23.80;99.90;;;;;;5062446;28;21355;-76
2022/08/11 00:19:40;;;;;;;15.35;11.13;;;23.80;99.90;;;;;;5065521;28;20221;-76
2022/08/11 00:22:11;;;;;;;17.30;11.18;;;23.80;99.90;;;;;;5080286;28;20193;-76
2022/08/11 00:24:41;;;;;;;17.27;10.90;;;23.70;99.90;;;;;;5083696;28;20179;-76
2022/08/11 00:27:07;;;;;;;18.65;11.40;;;23.80;99.90;;;;;;5043623;28;20193;-76
2022/08/11 00:29:35;;;;;;;17.13;11.23;;;23.80;99.90;;;;;;5047118;28;20871;-75
2022/08/11 00:32:06;;;;;;;19.23;10.88;;;23.80;99.90;;;;;;5056470;28;20587;-76
2022/08/11 00:34:37;;;;;;;19.85;11.60;;;23.70;99.90;;;;;;5063906;28;20196;-77
2022/08/11 00:37:10;;;;;;;21.98;12.23;;;23.80;99.90;;;;;;5063931;28;20198;-77
2022/08/11 00:39:49;;;;;;;17.85;12.18;;;23.80;99.90;;;;;;5074025;28;20215;-75
2022/08/11 00:42:59;;;;;;;16.45;11.55;;;23.80;99.90;;;;;;5063500;28;20187;-76
2022/08/11 00:45:42;;;;;;;19.15;12.00;;;23.80;99.90;;;;;;5061577;28;20190;-76
2022/08/11 00:48:40;;;;;;;18.45;11.18;;;23.70;99.90;;;;;;5059794;28;20638;-77
2022/08/11 00:51:43;;;;;;;15.55;11.73;;;23.70;99.90;;;;;;5065254;28;20539;-76
2022/08/11 00:54:38;;;;;;;16.65;11.70;;;23.70;99.90;;;;;;5076640;28;20305;-75
2022/08/11 00:57:52;;;;;;;18.58;12.05;;;23.70;99.90;;;;;;5061824;28;20285;-76
2022/08/11 01:00:26;;;;;;;19.02;12.80;;;23.70;99.90;;;;;;5036772;28;20198;-76
2022/08/11 01:03:17;;;;;;;20.70;13.07;;;23.70;99.90;;;;;;5047098;28;20221;-77
2022/08/11 01:06:21;;;;;;;20.00;13.80;;;23.70;99.90;;;;;;5060900;28;20521;-77
2022/08/11 01:09:28;;;;;;;20.42;13.23;;;23.70;99.90;;;;;;5075231;28;20183;-76
2022/08/11 01:12:21;;;;;;;20.85;14.00;;;23.80;99.90;;;;;;5076761;28;20201;-77
2022/08/11 01:14:59;;;;;;;19.77;14.00;;;23.70;99.90;;;;;;5051194;28;20195;-76
2022/08/11 01:18:27;;;;;;;19.60;13.55;;;23.70;99.90;;;;;;5069619;28;20639;-76
2022/08/11 01:21:50;;;;;;;22.60;14.10;;;23.70;99.90;;;;;;5052646;28;20228;-76
2022/08/11 01:24:49;;;;;;;14.85;13.20;;;23.60;99.90;;;;;;5047787;28;20191;-75
2022/08/11 01:27:31;;;;;;;18.15;13.07;;;23.70;99.90;;;;;;5061997;28;20195;-76
2022/08/11 01:30:39;;;;;;;19.48;14.50;;;23.70;99.90;;;;;;5056980;28;20202;-76
2022/08/11 01:33:50;;;;;;;17.33;14.18;;;23.70;99.90;;;;;;5009623;28;20295;-76
2022/08/11 01:37:12;;;;;;;21.27;14.85;;;23.70;99.90;;;;;;5096208;28;20183;-76
2022/08/11 01:40:00;;;;;;;21.23;14.70;;;23.70;99.90;;;;;;5069287;28;20210;-76
2022/08/11 01:46:15;;;;;;;23.63;14.50;;;23.60;99.90;;;;;;5065296;28;20596;-76
2022/08/11 01:49:10;;;;;;;21.45;15.35;;;23.70;99.90;;;;;;5066932;28;20182;-76
2022/08/11 01:52:20;;;;;;;17.50;14.00;;;23.70;99.90;;;;;;5068635;28;20183;-76
2022/08/11 01:55:10;;;;;;;19.38;15.60;;;23.60;99.90;;;;;;5068675;28;20183;-76
2022/08/11 01:58:28;;;;;;;20.63;14.88;;;23.70;99.90;;;;;;5085528;28;20826;-77
2022/08/11 02:01:43;;;;;;;23.45;16.45;;;23.60;99.90;;;;;;5006740;28;20243;-77
2022/08/11 02:04:41;;;;;;;21.63;15.35;;;23.60;99.90;;;;;;5073985;28;20198;-76
2022/08/11 02:07:37;;;;;;;18.58;15.68;;;23.60;99.90;;;;;;5071938;28;20221;-77
2022/08/11 02:14:00;;;;;;;21.48;16.55;;;23.60;99.90;;;;;;5073347;28;20301;-76
2022/08/11 02:16:54;;;;;;;21.90;15.38;;;23.60;99.90;;;;;;5082466;28;20240;-77
2022/08/11 02:26:07;;;;;;;20.35;16.40;;;23.60;99.90;;;;;;5059796;28;20187;-76
2022/08/11 02:29:12;;;;;;;21.83;16.00;;;23.60;99.90;;;;;;5068149;28;20224;-76
2022/08/11 02:35:27;;;;;;;17.80;15.80;;;23.60;99.90;;;;;;5048822;28;20226;-77
2022/08/11 02:38:13;;;;;;;19.30;15.30;;;23.50;99.90;;;;;;5067917;28;20277;-76
2022/08/11 02:40:42;;;;;;;20.08;15.48;;;23.50;99.90;;;;;;5038799;28;20193;-77
2022/08/11 02:43:56;;;;;;;16.55;14.85;;;23.50;99.90;;;;;;5050100;28;20214;-76
2022/08/11 02:46:38;;;;;;;21.05;15.95;;;23.50;99.90;;;;;;5063466;28;20586;-77
2022/08/11 02:52:58;;;;;;;18.25;15.32;;;23.50;99.90;;;;;;5076298;28;20191;-76
2022/08/11 02:55:49;;;;;;;18.33;15.45;;;23.50;99.90;;;;;;5071830;28;20191;-77
2022/08/11 02:59:49;;;;;;;17.27;15.43;;;23.50;99.90;;;;;;5062140;28;20203;-76
2022/08/11 03:01:51;;;;;;;17.42;14.50;;;23.50;99.90;;;;;;5072060;28;20194;-76
2022/08/11 03:04:50;;;;;;;22.15;15.88;;;23.50;99.90;;;;;;5070840;28;20658;-76
2022/08/11 03:07:51;;;;;;;22.13;15.75;;;23.50;99.90;;;;;;5053350;28;20183;-76
2022/08/11 03:18:02;;;;;;;22.10;14.82;;;23.50;99.90;;;;;;5049590;28;20981;-76
2022/08/11 03:21:01;;;;;;;17.60;14.30;;;23.50;99.90;;;;;;5050254;28;20264;-77
2022/08/11 03:24:02;;;;;;;19.40;14.90;;;23.50;99.90;;;;;;5057775;28;20725;-77
2022/08/11 03:26:57;;;;;;;18.20;13.65;;;23.50;99.90;;;;;;5071317;28;20227;-76
2022/08/11 03:29:52;;;;;;;20.23;14.60;;;23.50;99.90;;;;;;5064412;28;20183;-76
2022/08/11 03:36:03;;;;;;;19.13;13.93;;;23.50;99.90;;;;;;5070047;28;20696;-76
2022/08/11 03:39:09;;;;;;;14.48;12.98;;;23.50;99.90;;;;;;5059221;28;20195;-76
2022/08/11 03:42:04;;;;;;;17.92;12.93;;;23.50;99.90;;;;;;5066182;28;20186;-76
2022/08/11 03:44:38;;;;;;;16.67;13.05;;;23.50;99.90;;;;;;5051856;28;20194;-77
2022/08/11 03:47:21;;;;;;;21.23;13.13;;;23.50;99.90;;;;;;5069460;28;20343;-77
2022/08/11 03:50:32;;;;;;;18.65;13.68;;;23.50;99.90;;;;;;5069393;28;20640;-76
2022/08/11 03:53:54;;;;;;;20.98;13.88;;;23.50;99.90;;;;;;5050560;28;20215;-76
2022/08/11 03:56:48;;;;;;;21.50;12.60;;;23.50;99.90;;;;;;5049183;28;20182;-76
2022/08/11 04:00:02;;;;;;;21.90;12.63;;;23.50;99.90;;;;;;5051671;28;20289;-76
2022/08/11 04:03:24;;;;;;;16.70;12.45;;;23.50;99.90;;;;;;5085192;28;20651;-77
2022/08/11 04:06:54;;;;;;;22.00;12.48;;;23.60;99.90;;;;;;5069263;28;20193;-76
2022/08/11 04:09:47;;;;;;;23.65;12.70;;;23.50;99.90;;;;;;5054714;28;20583;-76
2022/08/11 04:12:51;;;;;;;17.73;12.50;;;23.50;99.90;;;;;;5068294;28;20189;-76
2022/08/11 04:16:14;;;;;;;18.15;11.85;;;23.60;99.90;;;;;;5066972;28;20179;-76
2022/08/11 04:18:50;;;;;;;20.33;9.68;;;23.60;99.90;;;;;;5062311;28;20182;-76
2022/08/11 04:21:52;;;;;;;18.25;11.32;;;23.60;99.90;;;;;;5070340;28;20228;-77
2022/08/11 04:25:05;;;;;;;15.35;11.15;;;23.60;99.90;;;;;;5086032;28;20192;-76
2022/08/11 04:28:18;;;;;;;16.10;10.70;;;23.60;99.90;;;;;;5071990;28;20174;-76
2022/08/11 04:31:06;;;;;;;22.30;9.90;;;23.70;99.90;;;;;;5070957;28;20656;-77
2022/08/11 04:34:05;;;;;;;14.90;8.73;;;23.80;99.90;;;;;;5031765;28;20675;-77
2022/08/11 04:40:25;;;;;;;16.73;9.52;;;23.80;99.90;;;;;;5065220;28;20180;-76
2022/08/11 04:43:44;;;;;;;17.45;9.77;;;23.90;99.90;;;;;;5064235;28;20183;-76
2022/08/11 04:47:02;;;;;;;17.85;8.23;;;24.00;99.90;;;;;;5079589;28;20206;-76
2022/08/11 05:03:02;;;;;;;15.68;7.28;;;24.40;99.90;;;;;;5052976;28;20197;-77
2022/08/11 05:06:30;;;;;;;17.83;8.07;;;24.50;99.90;;;;;;5073759;28;20636;-77
2022/08/11 05:09:33;;;;;;;19.27;7.63;;;24.50;99.90;;;;;;4991737;28;20204;-77
2022/08/11 05:12:35;;;;;;;16.50;7.43;;;24.60;99.90;;;;;;5071381;28;20181;-76
2022/08/11 05:35:40;;;;;;;18.25;6.72;;;25.20;99.90;;;;;;5051503;28;20179;-76
2022/08/11 05:58:05;;;;;;;15.15;6.28;;;25.60;99.90;;;;;;5086455;28;20187;-74
2022/08/11 06:00:44;;;;;;;15.20;6.63;;;25.70;99.90;;;;;;5070642;28;20624;-74
2022/08/11 06:03:26;;;;;;;11.70;5.97;;;25.70;99.90;;;;;;5071636;28;20263;-77
2022/08/11 06:05:53;;;;;;;9.85;5.22;;;25.70;99.90;;;;;;5070914;28;20179;-77
2022/08/11 06:08:36;;;;;;;13.55;5.90;;;25.70;99.90;;;;;;5072287;28;20183;-76
2022/08/11 06:11:05;;;;;;;16.50;5.75;;;25.70;99.90;;;;;;5070861;28;20185;-74
2022/08/11 06:13:34;;;;;;;21.00;5.95;;;25.80;99.90;;;;;;5069717;28;20210;-77
2022/08/11 06:16:01;;;;;;;10.18;5.20;;;26.00;99.90;;;;;;5079636;28;20190;-76
2022/08/11 06:18:33;;;;;;;13.10;5.85;;;26.00;99.90;;;;;;5071952;28;20191;-77
2022/08/11 06:21:00;;;;;;;15.07;5.45;;;26.10;99.90;;;;;;5072346;28;20185;-77
2022/08/11 06:23:33;;;;;;;11.00;5.03;;;26.20;99.90;;;;;;5080006;28;20186;-77
2022/08/11 06:26:01;;;;;;;14.23;5.47;;;26.40;99.90;;;;;;5090862;28;20213;-76
2022/08/11 06:28:38;;;;;;;13.35;5.63;;;26.50;99.90;;;;;;5107433;28;20322;-74
2022/08/11 06:31:15;;;;;;;10.35;4.80;;;26.60;99.90;;;;;;5071615;28;20860;-74
2022/08/11 06:34:48;;;;;;;14.35;5.40;;;26.60;99.90;;;;;;5069732;28;20225;-74
2022/08/11 06:37:54;;;;;;;13.02;4.93;;;26.70;99.90;;;;;;4989222;28;20187;-77
2022/08/11 06:44:13;;;;;;;13.45;5.18;;;26.80;99.90;;;;;;5070311;28;20752;-74
2022/08/11 06:46:45;;;;;;;10.70;4.82;;;26.80;99.90;;;;;;4996615;28;20188;-76
2022/08/11 06:52:05;;;;;;;7.50;4.60;;;26.70;99.90;;;;;;5054641;28;20187;-76
2022/08/11 06:55:03;;;;;;;9.18;4.55;;;26.70;99.90;;;;;;5049816;28;20211;-76
2022/08/11 07:00:29;;;;;;;9.98;4.18;;;26.80;99.90;;;;;;5070319;28;20201;-74
2022/08/11 07:03:16;;;;;;;10.18;4.55;;;26.90;99.90;;;;;;5069076;28;20199;-75
2022/08/11 07:06:04;;;;;;;9.00;4.50;;;26.90;99.90;;;;;;5071085;28;20662;-75
2022/08/11 07:28:54;;;;;;;9.60;4.35;;;27.20;99.90;;;;;;5051001;28;20183;-74
2022/08/11 07:29:13;;;;;;;6.57;4.32;;;27.50;99.90;;;;;;5084925;28;20206;-77
2022/08/11 07:31:52;;;;;;;6.32;3.65;;;27.50;99.90;;;;;;5068835;28;20281;-76
2022/08/11 07:34:36;;;;;;;8.90;4.30;;;27.50;99.90;;;;;;5069318;28;20215;-77
2022/08/11 07:37:16;;;;;;;12.00;4.07;;;27.50;99.90;;;;;;5069274;28;20178;-76
2022/08/11 07:39:45;;;;;;;13.35;4.45;;;27.50;99.90;;;;;;5066281;28;20200;-74
2022/08/11 07:42:18;;;;;;;9.20;4.10;;;27.60;99.90;;;;;;5085648;28;20183;-76
2022/08/11 07:53:09;;;;;;;8.48;3.90;;;27.90;99.90;;;;;;5080181;28;20203;-74
2022/08/11 07:55:37;;;;;;;7.75;3.63;;;28.10;99.90;;;;;;5086387;28;20213;-74
2022/08/11 08:20:50;;;;;;;8.70;4.00;;;28.80;99.90;;;;;;5077711;28;20259;-76
2022/08/11 08:23:32;;;;;;;10.88;3.83;;;28.90;99.90;;;;;;5062612;28;20187;-76
2022/08/11 08:26:03;;;;;;;10.77;3.92;;;29.00;99.90;;;;;;5062218;28;20863;-77
2022/08/11 08:28:32;;;;;;;7.07;3.72;;;29.10;99.90;;;;;;5069734;28;20195;-77
2022/08/11 08:30:59;;;;;;;10.70;4.13;;;29.10;99.90;;;;;;5085404;28;20586;-77
2022/08/11 08:33:30;;;;;;;8.75;4.10;;;29.20;99.90;;;;;;5067183;28;20207;-76
2022/08/11 08:36:10;;;;;;;9.30;3.85;;;29.20;99.90;;;;;;5071744;28;20536;-77
2022/08/11 08:38:40;;;;;;;8.05;3.53;;;29.20;99.90;;;;;;5051294;28;20884;-76
2022/08/11 08:41:09;;;;;;;9.02;3.42;;;29.40;99.90;;;;;;5076611;28;20648;-77
2022/08/11 08:43:39;;;;;;;10.25;4.03;;;29.40;99.90;;;;;;5062665;28;20245;-76
2022/08/11 08:46:10;;;;;;;8.18;3.70;;;29.50;99.90;;;;;;5065066;28;20191;-76
2022/08/11 08:48:40;;;;;;;5.78;3.17;;;29.60;99.90;;;;;;5084600;28;20179;-76
2022/08/11 08:54:07;;;;;;;6.80;3.30;;;29.60;99.90;;;;;;5065645;28;20232;-76
2022/08/11 08:56:36;;;;;;;14.00;4.00;;;29.70;99.90;;;;;;5067903;28;20682;-78
2022/08/11 08:59:04;;;;;;;5.78;3.30;;;29.70;99.90;;;;;;5066254;28;20198;-78
2022/08/11 09:02:00;;;;;;;8.38;3.63;;;29.80;99.90;;;;;;5081113;28;20630;-78
2022/08/11 09:04:29;;;;;;;5.45;3.10;;;30.00;99.90;;;;;;5068326;28;20211;-78
2022/08/11 09:07:08;;;;;;;5.00;3.25;;;30.10;99.90;;;;;;5068941;28;20243;-78
2022/08/11 09:09:37;;;;;;;6.43;2.88;;;30.10;99.90;;;;;;5066323;28;20279;-77
2022/08/11 09:12:09;;;;;;;10.68;3.63;;;30.20;99.90;;;;;;5063777;28;20194;-78
2022/08/11 09:17:43;;;;;;;7.15;3.28;;;30.50;99.90;;;;;;5069149;28;20716;-76
2022/08/11 09:20:16;;;;;;;5.38;3.05;;;30.50;99.90;;;;;;5063029;28;20672;-77
2022/08/11 09:28:22;;;;;;;8.77;3.10;;;30.60;99.90;;;;;;5064729;28;20198;-77
2022/08/11 09:30:54;;;;;;;7.57;3.17;;;30.70;99.90;;;;;;5074856;28;20207;-77
2022/08/11 09:33:23;;;;;;;8.02;3.05;;;30.70;99.90;;;;;;5067783;28;20660;-77
2022/08/11 09:35:57;;;;;;;10.15;3.40;;;30.80;99.90;;;;;;5066746;28;20198;-76
2022/08/11 09:41:14;;;;;;;5.50;3.13;;;31.10;99.10;;;;;;5069984;28;20187;-76
2022/08/11 09:46:34;;;;;;;10.77;3.50;;;31.30;99.20;;;;;;5085144;28;20193;-75
2022/08/11 09:49:04;;;;;;;6.03;3.17;;;31.50;97.90;;;;;;5077254;28;20230;-77
2022/08/11 09:51:36;;;;;;;3.95;2.75;;;31.60;97.00;;;;;;5064154;28;20222;-77
2022/08/11 09:54:10;;;;;;;6.20;3.03;;;31.60;95.80;;;;;;5065564;28;20240;-76
2022/08/11 09:59:23;;;;;;;9.10;3.53;;;31.60;96.70;;;;;;5066358;28;20183;-77
2022/08/11 10:02:03;;;;;;;14.57;3.63;;;31.70;95.20;;;;;;5066625;28;20180;-76
2022/08/11 10:04:45;;;;;;;6.72;2.97;;;31.70;96.10;;;;;;5067653;28;20267;-76
2022/08/11 10:07:21;;;;;;;6.78;3.65;;;31.80;96.50;;;;;;5081668;28;20272;-76
2022/08/11 10:10:04;;;;;;;9.82;3.20;;;31.90;98.50;;;;;;5063726;28;20696;-76
2022/08/11 10:12:41;;;;;;;6.60;3.55;;;32.10;97.30;;;;;;5053946;28;20644;-76
2022/08/11 10:15:38;;;;;;;7.82;3.45;;;32.10;96.90;;;;;;5084041;28;20651;-75
2022/08/11 10:18:41;;;;;;;9.57;3.30;;;32.10;96.10;;;;;;5055279;28;20202;-77
2022/08/11 10:21:40;;;;;;;5.53;3.28;;;32.10;96.80;;;;;;5082718;28;20202;-77
2022/08/11 10:27:02;;;;;;;5.22;3.17;;;32.10;96.70;;;;;;5063364;28;20189;-77
2022/08/11 10:35:26;;;;;;;7.07;3.70;;;32.20;97.30;;;;;;5060147;28;20212;-77
2022/08/11 10:37:55;;;;;;;9.35;3.20;;;32.20;97.40;;;;;;5048125;28;20190;-77
2022/08/11 10:40:23;;;;;;;8.38;3.55;;;32.20;98.20;;;;;;5068778;28;20210;-77
2022/08/11 10:43:11;;;;;;;6.97;3.38;;;32.40;98.60;;;;;;5065450;28;20187;-77
2022/08/11 10:48:35;;;;;;;7.20;3.85;;;32.30;96.70;;;;;;5080258;28;20269;-76
2022/08/11 10:51:16;;;;;;;7.57;3.75;;;32.30;97.80;;;;;;5086941;28;20552;-76
2022/08/11 10:59:29;;;;;;;6.45;3.63;;;32.20;98.30;;;;;;5084723;28;20189;-77
2022/08/11 11:01:57;;;;;;;9.27;4.13;;;32.20;99.60;;;;;;5069359;28;20191;-77
2022/08/11 11:04:46;;;;;;;11.10;3.90;;;32.10;98.80;;;;;;5072082;28;20287;-77
2022/08/11 11:07:22;;;;;;;13.05;3.88;;;31.90;99.60;;;;;;5054412;28;20647;-77
2022/08/11 11:09:57;;;;;;;8.93;3.72;;;32.00;99.90;;;;;;5064495;28;20255;-77
2022/08/11 11:18:24;;;;;;;8.80;4.05;;;32.00;99.90;;;;;;5068049;28;20185;-76
2022/08/11 11:20:57;;;;;;;10.00;3.78;;;31.90;99.40;;;;;;5049543;28;20270;-76
2022/08/11 11:23:58;;;;;;;10.43;4.28;;;31.90;99.40;;;;;;5051600;28;20241;-77
2022/08/11 11:26:55;;;;;;;12.88;4.07;;;31.90;99.90;;;;;;5063261;28;20248;-76
2022/08/11 11:29:53;;;;;;;9.23;4.03;;;31.70;99.80;;;;;;5055265;28;20195;-75
2022/08/11 11:33:03;;;;;;;8.27;4.10;;;31.60;99.90;;;;;;5050929;28;20201;-76
2022/08/11 11:35:57;;;;;;;7.18;3.90;;;31.60;99.90;;;;;;5064021;28;20192;-77
2022/08/11 11:38:27;;;;;;;8.40;3.97;;;31.50;99.90;;;;;;5064993;28;20186;-77
2022/08/11 11:43:41;;;;;;;13.60;4.30;;;31.60;99.90;;;;;;5063920;28;20660;-76
2022/08/11 11:46:09;;;;;;;14.27;4.05;;;31.60;99.90;;;;;;5069233;28;20201;-76
2022/08/11 11:48:37;;;;;;;13.20;4.00;;;31.70;99.90;;;;;;5054154;28;20174;-76
2022/08/11 11:51:06;;;;;;;12.15;3.45;;;31.70;99.90;;;;;;5086367;28;20186;-77
2022/08/11 11:53:35;;;;;;;8.32;3.92;;;31.70;99.90;;;;;;5085771;28;20289;-76
2022/08/11 11:56:03;;;;;;;9.55;3.85;;;31.60;99.90;;;;;;5067982;28;20187;-77
2022/08/11 12:01:15;;;;;;;10.52;3.67;;;31.50;99.90;;;;;;5071679;28;20901;-77
2022/08/11 12:03:49;;;;;;;11.18;4.63;;;31.60;99.90;;;;;;5085116;28;20643;-77
2022/08/11 12:06:20;;;;;;;9.45;4.28;;;31.60;99.90;;;;;;5070148;28;20197;-76
2022/08/11 12:08:52;;;;;;;13.25;4.38;;;31.60;99.90;;;;;;5070237;28;20179;-76
2022/08/11 12:14:11;;;;;;;6.43;3.42;;;31.60;99.90;;;;;;5069714;28;20218;-76
2022/08/11 12:16:42;;;;;;;11.18;4.45;;;31.50;99.00;;;;;;5081693;28;20625;-77
2022/08/11 12:19:21;;;;;;;12.73;4.72;;;31.40;99.90;;;;;;5065934;28;20249;-76
2022/08/11 12:27:23;;;;;;;11.45;4.40;;;31.30;99.90;;;;;;5068561;28;20679;-77
2022/08/11 12:29:59;;;;;;;11.43;4.65;;;31.50;99.90;;;;;;5070163;28;20273;-77
2022/08/11 12:32:33;;;;;;;14.27;4.35;;;31.50;99.90;;;;;;5068589;28;20198;-76
2022/08/11 12:35:01;;;;;;;12.20;4.78;;;31.50;99.90;;;;;;5069971;28;20201;-76
2022/08/11 12:37:44;;;;;;;11.07;4.47;;;31.50;99.90;;;;;;5037001;28;20182;-76
2022/08/11 12:46:03;;;;;;;9.02;4.30;;;31.30;99.90;;;;;;5067852;28;20649;-76
2022/08/11 12:54:22;;;;;;;8.05;4.25;;;31.10;99.90;;;;;;5048716;28;20222;-77
2022/08/11 13:05:20;;;;;;;9.65;4.78;;;31.00;99.90;;;;;;5069093;28;20212;-76
2022/08/11 13:07:48;;;;;;;17.10;5.07;;;31.10;99.90;;;;;;5068585;28;20175;-76
2022/08/11 13:13:08;;;;;;;8.52;4.63;;;31.10;99.90;;;;;;5071894;28;20295;-76
2022/08/11 13:15:36;;;;;;;8.55;4.57;;;31.20;99.90;;;;;;5075198;28;20266;-76
2022/08/11 13:18:06;;;;;;;11.18;4.32;;;31.20;99.90;;;;;;5073337;28;20229;-76
2022/08/11 13:20:34;;;;;;;14.20;4.72;;;31.20;99.90;;;;;;5090694;28;20213;-77
2022/08/11 13:23:02;;;;;;;10.70;4.25;;;31.00;99.90;;;;;;5084234;28;20253;-77
2022/08/11 13:25:31;;;;;;;8.60;4.25;;;31.00;99.90;;;;;;5052439;28;20537;-76
2022/08/11 13:28:01;;;;;;;11.05;4.68;;;31.10;99.90;;;;;;5053113;28;20176;-76
2022/08/11 13:33:19;;;;;;;8.27;4.40;;;31.00;99.90;;;;;;5086742;28;20264;-76
2022/08/11 13:35:48;;;;;;;12.93;4.22;;;31.10;99.90;;;;;;5053645;28;20208;-76
2022/08/11 13:38:18;;;;;;;13.75;4.68;;;31.00;99.90;;;;;;5052830;28;20211;-76
2022/08/11 13:40:46;;;;;;;11.68;4.65;;;31.00;99.90;;;;;;5068929;28;20179;-76
2022/08/11 13:43:15;;;;;;;16.00;4.63;;;30.80;99.90;;;;;;5053501;28;20321;-76
2022/08/11 13:45:46;;;;;;;10.25;4.40;;;30.70;99.90;;;;;;5087034;28;20285;-76
2022/08/11 13:48:19;;;;;;;9.55;4.00;;;30.70;99.90;;;;;;5075367;28;20175;-76
2022/08/11 13:53:32;;;;;;;12.77;4.32;;;30.60;99.90;;;;;;5072318;28;20671;-76
2022/08/11 13:56:00;;;;;;;13.98;4.43;;;30.70;99.90;;;;;;5088480;28;20211;-76
2022/08/11 13:58:29;;;;;;;6.85;4.00;;;30.70;99.90;;;;;;5088773;28;20174;-77
2022/08/11 14:00:58;;;;;;;8.63;3.88;;;30.70;99.90;;;;;;5074342;28;20179;-76
2022/08/11 14:03:27;;;;;;;16.55;4.60;;;30.60;99.90;;;;;;5072634;28;20700;-76
2022/08/11 14:06:02;;;;;;;11.32;4.50;;;30.60;99.90;;;;;;5072889;28;20186;-76
2022/08/11 14:08:37;;;;;;;9.48;4.07;;;30.50;99.90;;;;;;5074357;28;20668;-76
2022/08/11 14:13:55;;;;;;;9.95;4.10;;;30.60;99.90;;;;;;5072335;28;20206;-76
2022/08/11 14:16:35;;;;;;;9.95;4.55;;;30.60;99.90;;;;;;5073449;28;20663;-76
2022/08/11 14:19:10;;;;;;;7.45;4.05;;;30.40;99.90;;;;;;5071416;28;20274;-76
2022/08/11 14:24:29;;;;;;;11.20;4.10;;;30.40;99.90;;;;;;5091036;28;20186;-75
2022/08/11 14:26:56;;;;;;;7.88;4.40;;;30.30;99.90;;;;;;5093563;28;20181;-76
2022/08/11 14:29:27;;;;;;;10.65;4.22;;;30.10;99.90;;;;;;5084845;28;20684;-76
2022/08/11 14:32:04;;;;;;;15.65;4.45;;;30.20;99.90;;;;;;5071784;28;20194;-76
2022/08/11 14:34:33;;;;;;;10.60;4.10;;;30.20;99.90;;;;;;5055393;28;20229;-76
2022/08/11 14:37:09;;;;;;;8.55;4.03;;;30.10;99.90;;;;;;5067882;28;20185;-76
2022/08/11 14:39:58;;;;;;;9.20;4.00;;;30.10;99.90;;;;;;5071251;28;20183;-76
2022/08/11 14:48:08;;;;;;;14.05;4.75;;;29.90;99.90;;;;;;5071011;28;20536;-77
2022/08/11 14:50:35;;;;;;;9.82;4.40;;;29.90;99.90;;;;;;5089068;28;20175;-76
2022/08/11 14:53:11;;;;;;;12.07;4.60;;;29.80;99.90;;;;;;5069753;28;20297;-76
2022/08/11 14:58:32;;;;;;;15.20;4.18;;;29.70;99.90;;;;;;5073757;28;20159;-76
2022/08/11 15:03:05;;;;;;;9.07;4.53;;;29.50;99.90;;;;;;5071939;28;20183;-76
2022/08/11 15:03:51;;;;;;;10.50;4.63;;;29.40;99.90;;;;;;5072251;28;20212;-76
2022/08/11 15:06:18;;;;;;;12.68;4.85;;;29.40;99.90;;;;;;5070749;28;20194;-76
2022/08/11 15:08:54;;;;;;;14.13;5.18;;;29.50;99.90;;;;;;5072421;28;20188;-75
2022/08/11 15:14:12;;;;;;;11.07;4.40;;;29.30;99.90;;;;;;5069387;28;20236;-75
2022/08/11 15:19:35;;;;;;;11.73;4.85;;;29.10;99.90;;;;;;5075909;28;20211;-76
2022/08/11 15:24:47;;;;;;;12.23;4.53;;;29.00;99.90;;;;;;5067935;28;20199;-76
2022/08/11 15:38:38;;;;;;;18.25;5.70;;;28.70;99.90;;;;;;5068264;28;20183;-75
2022/08/11 15:46:48;;;;;;;10.43;4.50;;;28.60;99.90;;;;;;5069220;28;20296;-76
2022/08/11 15:49:28;;;;;;;14.57;4.95;;;28.50;99.90;;;;;;5069183;28;20487;-75
2022/08/11 15:52:12;;;;;;;14.02;4.50;;;28.40;99.90;;;;;;5052152;28;20213;-76
2022/08/11 15:54:42;;;;;;;16.52;4.75;;;28.40;99.90;;;;;;5069872;28;20676;-75
2022/08/11 16:04:09;;;;;;;12.45;4.75;;;28.30;99.90;;;;;;5071304;28;20191;-75
2022/08/11 16:05:25;;;;;;;19.35;5.03;;;28.10;99.90;;;;;;5073298;28;20312;-76
2022/08/11 16:07:55;;;;;;;17.92;5.50;;;28.10;99.90;;;;;;5072708;28;20182;-75
2022/08/11 16:10:21;;;;;;;18.27;5.80;;;28.00;99.90;;;;;;5087775;28;20186;-75
2022/08/11 16:16:13;;;;;;;19.48;5.60;;;28.00;99.90;;;;;;5070697;28;20182;-75
2022/08/11 16:16:15;;;;;;;14.57;5.50;;;28.00;99.90;;;;;;5072438;28;20260;-76
2022/08/11 16:18:47;;;;;;;16.20;4.60;;;27.90;99.90;;;;;;5070575;28;20179;-76
2022/08/11 16:21:24;;;;;;;13.43;5.50;;;27.80;99.90;;;;;;5071412;28;20178;-75
2022/08/11 16:23:55;;;;;;;17.23;5.28;;;27.70;99.90;;;;;;5070155;28;20186;-76
2022/08/11 16:26:24;;;;;;;13.55;4.90;;;27.70;99.90;;;;;;5071616;28;20183;-75
2022/08/11 16:28:55;;;;;;;16.30;5.25;;;27.60;99.90;;;;;;5087176;28;20593;-75
2022/08/11 16:31:24;;;;;;;21.15;5.75;;;27.50;99.90;;;;;;5071955;28;20225;-76
2022/08/11 16:33:54;;;;;;;18.27;5.30;;;27.40;99.90;;;;;;5070338;28;20253;-76
2022/08/11 16:39:17;;;;;;;16.27;4.78;;;27.10;99.90;;;;;;5071312;28;20175;-75
2022/08/11 16:47:22;;;;;;;18.38;5.88;;;26.90;99.90;;;;;;5065890;28;20670;-75
2022/08/11 16:49:54;;;;;;;18.75;5.28;;;26.80;99.90;;;;;;5075309;28;20209;-75
2022/08/11 16:52:23;;;;;;;18.50;4.97;;;26.70;99.90;;;;;;5075640;28;20182;-75
2022/08/11 16:54:50;;;;;;;18.13;5.53;;;26.60;99.90;;;;;;5075015;28;20890;-76
2022/08/11 17:00:16;;;;;;;17.08;5.72;;;26.30;99.90;;;;;;5059121;28;20175;-75
2022/08/11 17:16:05;;;;;;;17.17;6.07;;;26.00;99.90;;;;;;5074634;28;20285;-76
2022/08/11 17:18:40;;;;;;;19.67;6.35;;;25.90;99.90;;;;;;5074468;28;20654;-75
2022/08/11 17:21:11;;;;;;;15.70;4.80;;;25.90;99.90;;;;;;5017750;28;20199;-75
2022/08/11 17:23:49;;;;;;;15.63;5.60;;;25.80;99.90;;;;;;5064679;28;20191;-75
2022/08/11 17:26:25;;;;;;;14.02;5.68;;;25.80;99.90;;;;;;5063642;28;20272;-76
2022/08/11 17:28:59;;;;;;;14.48;5.35;;;25.70;99.90;;;;;;5091660;28;20248;-75
2022/08/11 17:37:00;;;;;;;13.73;4.78;;;25.90;99.90;;;;;;5075586;28;20182;-75
2022/08/11 17:39:30;;;;;;;12.90;4.43;;;25.80;99.90;;;;;;5091945;28;20240;-75
2022/08/11 17:50:21;;;;;;;12.57;4.68;;;25.70;99.90;;;;;;5074841;28;20189;-76
2022/08/11 18:01:16;;;;;;;10.85;4.30;;;25.60;99.90;;;;;;5076211;28;20249;-75
2022/08/11 18:03:44;;;;;;;16.60;4.15;;;25.50;99.90;;;;;;5054106;28;20226;-75
2022/08/11 18:06:13;;;;;;;12.43;4.60;;;25.50;99.90;;;;;;5071681;28;20183;-76
